createdAt,value
2018-07-10T00:01:52.403Z,5.30
2018-07-10T00:02:52.400Z,3.60
2018-07-10T00:04:45.331Z,3.90
2018-07-10T00:05:45.348Z,6.50
2018-07-10T00:07:38.296Z,4.80
2018-07-10T00:08:38.291Z,6.00
2018-07-10T00:10:31.223Z,5.40
2018-07-10T00:11:31.238Z,4.80
2018-07-10T00:13:24.184Z,7.60
2018-07-10T00:14:24.180Z,5.50
2018-07-10T00:16:17.108Z,9.80
2018-07-10T00:17:17.123Z,2.60
2018-07-10T00:19:10.077Z,5.60
2018-07-10T00:20:10.072Z,5.20
2018-07-10T00:22:03.014Z,4.30
2018-07-10T00:23:03.008Z,3.60
2018-07-10T00:24:55.953Z,7.40
2018-07-10T00:25:55.959Z,5.10
2018-07-10T00:27:48.910Z,5.70
2018-07-10T00:28:48.903Z,5.60
2018-07-10T00:30:41.826Z,8.10
2018-07-10T00:31:41.841Z,6.90
2018-07-10T00:33:34.788Z,5.10
2018-07-10T00:34:34.784Z,3.90
2018-07-10T00:36:27.709Z,4.00
2018-07-10T00:37:27.729Z,5.70
2018-07-10T00:39:20.672Z,4.10
2018-07-10T00:40:20.669Z,7.10
2018-07-10T00:42:13.633Z,6.00
2018-07-10T00:43:13.616Z,6.70
2018-07-10T00:45:06.547Z,5.80
2018-07-10T00:46:06.562Z,4.80
2018-07-10T00:47:59.502Z,4.30
2018-07-10T00:48:59.501Z,6.00
2018-07-10T00:50:52.433Z,8.00
2018-07-10T00:51:52.437Z,6.90
2018-07-10T00:53:45.393Z,8.00
2018-07-10T00:54:45.393Z,5.80
2018-07-10T00:56:38.321Z,4.90
2018-07-10T00:57:38.333Z,4.70
2018-07-10T00:59:31.279Z,4.30
2018-07-10T01:00:31.275Z,6.40
2018-07-10T01:02:24.221Z,4.30
2018-07-10T01:03:24.216Z,7.20
2018-07-10T01:05:17.171Z,4.30
2018-07-10T01:06:17.156Z,4.10
2018-07-10T01:08:10.100Z,6.30
2018-07-10T01:09:10.096Z,4.10
2018-07-10T01:11:03.022Z,4.70
2018-07-10T01:12:03.036Z,5.40
2018-07-10T01:13:55.981Z,5.30
2018-07-10T01:14:55.977Z,4.40
2018-07-10T01:16:48.907Z,3.70
2018-07-10T01:17:48.916Z,6.40
2018-07-10T01:19:41.887Z,4.90
2018-07-10T01:20:41.856Z,4.10
2018-07-10T01:22:34.806Z,5.00
2018-07-10T01:23:34.800Z,6.30
2018-07-10T01:25:27.731Z,4.70
2018-07-10T01:26:27.740Z,5.30
2018-07-10T01:28:20.685Z,3.90
2018-07-10T01:29:20.690Z,7.60
2018-07-10T01:31:13.608Z,6.90
2018-07-10T01:32:13.625Z,4.80
2018-07-10T01:34:06.576Z,4.70
2018-07-10T01:35:06.569Z,3.40
2018-07-10T01:36:59.494Z,5.80
2018-07-10T01:37:59.508Z,7.40
2018-07-10T01:39:52.455Z,5.30
2018-07-10T01:40:52.452Z,5.40
2018-07-10T01:42:45.412Z,4.90
2018-07-10T01:43:45.394Z,8.10
2018-07-10T01:45:38.319Z,4.90
2018-07-10T01:46:38.335Z,5.30
2018-07-10T01:48:31.279Z,3.20
2018-07-10T01:49:31.274Z,6.30
2018-07-10T01:51:24.214Z,6.90
2018-07-10T01:52:24.216Z,6.00
2018-07-10T01:54:17.166Z,5.30
2018-07-10T01:55:17.163Z,3.80
2018-07-10T02:24:35.608Z,3.70
2018-07-10T02:25:35.600Z,5.70
2018-07-10T02:27:28.519Z,4.00
2018-07-10T02:28:28.529Z,4.20
2018-07-10T02:30:21.468Z,4.00
2018-07-10T02:31:21.462Z,4.70
2018-07-10T02:33:14.414Z,3.30
2018-07-10T02:34:14.389Z,3.90
2018-07-10T02:36:07.315Z,4.60
2018-07-10T02:37:07.324Z,4.40
2018-07-10T02:39:00.275Z,3.60
2018-07-10T02:40:00.263Z,4.20
2018-07-10T02:41:53.188Z,3.20
2018-07-10T02:42:53.207Z,6.10
2018-07-10T02:44:46.150Z,5.80
2018-07-10T02:45:46.142Z,4.10
2018-07-10T02:47:39.068Z,3.80
2018-07-10T02:48:39.081Z,4.10
2018-07-10T02:50:32.020Z,4.80
2018-07-10T02:51:32.017Z,4.40
2018-07-10T02:53:24.965Z,4.90
2018-07-10T02:54:24.961Z,5.70
2018-07-10T02:56:17.882Z,4.60
2018-07-10T02:57:17.898Z,6.20
2018-07-10T02:59:10.841Z,5.50
2018-07-10T03:00:10.835Z,4.20
2018-07-10T03:02:03.760Z,5.50
2018-07-10T03:03:03.776Z,3.90
2018-07-10T03:04:56.719Z,2.80
2018-07-10T03:05:56.714Z,5.10
2018-07-10T03:07:49.640Z,4.10
2018-07-10T03:08:49.652Z,3.50
2018-07-10T03:10:42.602Z,6.20
2018-07-10T03:11:42.605Z,5.30
2018-07-10T03:13:35.550Z,3.70
2018-07-10T03:14:35.532Z,4.70
2018-07-10T03:16:28.467Z,4.80
2018-07-10T03:17:28.478Z,4.80
2018-07-10T03:19:21.422Z,4.10
2018-07-10T03:20:21.415Z,3.50
2018-07-10T03:22:14.343Z,4.60
2018-07-10T03:23:14.356Z,5.30
2018-07-10T03:25:07.299Z,4.00
2018-07-10T03:26:07.295Z,5.00
2018-07-10T03:28:00.222Z,3.10
2018-07-10T03:29:00.240Z,4.10
2018-07-10T03:30:53.181Z,5.40
2018-07-10T03:31:53.174Z,6.50
2018-07-10T03:33:46.120Z,4.50
2018-07-10T03:34:46.116Z,3.20
2018-07-10T03:36:39.059Z,4.50
2018-07-10T03:37:39.056Z,4.10
2018-07-10T03:39:32.002Z,3.10
2018-07-10T03:40:31.995Z,4.20
2018-07-10T03:42:24.921Z,4.30
2018-07-10T03:43:24.938Z,4.20
2018-07-10T03:45:17.885Z,4.40
2018-07-10T03:46:17.880Z,5.20
2018-07-10T03:48:10.805Z,3.80
2018-07-10T03:49:10.823Z,4.10
2018-07-10T03:51:03.774Z,4.70
2018-07-10T03:52:03.773Z,5.90
2018-07-10T03:53:56.722Z,4.00
2018-07-10T03:54:56.707Z,3.90
2018-07-10T03:56:49.634Z,3.60
2018-07-10T03:57:49.652Z,4.00
2018-07-10T03:59:42.594Z,4.50
2018-07-10T04:00:42.588Z,3.00
2018-07-10T04:02:35.514Z,4.40
2018-07-10T04:03:35.528Z,4.70
2018-07-10T04:05:28.478Z,2.00
2018-07-10T04:06:28.471Z,4.40
2018-07-10T04:08:21.394Z,3.60
2018-07-10T04:09:21.410Z,3.30
2018-07-10T04:11:14.852Z,4.40
2018-07-10T04:12:14.845Z,4.10
2018-07-10T04:14:07.778Z,3.40
2018-07-10T04:15:07.790Z,3.10
2018-07-10T04:17:00.742Z,5.00
2018-07-10T04:18:00.736Z,5.30
2018-07-10T04:19:53.684Z,5.90
2018-07-10T04:20:53.678Z,3.40
2018-07-10T04:22:46.610Z,4.00
2018-07-10T04:23:46.625Z,4.20
2018-07-10T04:25:39.569Z,4.80
2018-07-10T04:26:39.563Z,3.80
2018-07-10T04:28:32.493Z,4.10
2018-07-10T04:29:32.508Z,3.70
2018-07-10T04:31:25.452Z,5.10
2018-07-10T04:32:25.449Z,5.50
2018-07-10T04:34:18.370Z,3.90
2018-07-10T04:35:18.389Z,4.00
2018-07-10T04:37:11.334Z,3.40
2018-07-10T04:38:11.331Z,3.70
2018-07-10T04:40:04.279Z,2.90
2018-07-10T04:41:04.272Z,5.60
2018-07-10T04:42:57.205Z,5.20
2018-07-10T04:43:57.216Z,3.10
2018-07-10T04:45:50.169Z,4.20
2018-07-10T04:46:50.162Z,3.40
2018-07-10T04:48:43.099Z,4.40
2018-07-10T04:49:43.108Z,2.50
2018-07-10T04:51:36.060Z,3.80
2018-07-10T04:52:36.046Z,5.60
2018-07-10T04:54:28.973Z,7.00
2018-07-10T04:55:29.041Z,4.80
2018-07-10T04:57:22.235Z,4.80
2018-07-10T04:58:22.014Z,4.00
2018-07-10T05:00:14.971Z,5.00
2018-07-10T05:01:14.967Z,4.40
2018-07-10T05:03:08.006Z,5.50
2018-07-10T05:04:08.020Z,5.50
2018-07-10T05:06:00.985Z,4.20
2018-07-10T05:07:00.978Z,3.40
2018-07-10T05:08:54.034Z,4.60
2018-07-10T05:09:54.049Z,4.40
2018-07-10T05:11:47.121Z,5.10
2018-07-10T05:12:46.987Z,5.60
2018-07-10T05:14:39.916Z,7.90
2018-07-10T05:15:39.931Z,4.90
2018-07-10T05:17:32.896Z,5.00
2018-07-10T05:18:32.927Z,4.30
2018-07-10T05:20:25.827Z,5.20
2018-07-10T05:21:25.825Z,3.30
2018-07-10T05:23:18.754Z,4.40
2018-07-10T05:24:18.769Z,3.70
2018-07-10T05:26:11.714Z,5.40
2018-07-10T05:27:11.716Z,5.10
2018-07-10T05:29:04.700Z,2.80
2018-07-10T05:30:04.656Z,4.50
2018-07-10T05:31:57.602Z,3.50
2018-07-10T05:32:57.597Z,4.30
2018-07-10T05:34:50.526Z,4.80
2018-07-10T05:35:50.540Z,3.50
2018-07-10T05:37:43.492Z,5.80
2018-07-10T05:38:43.489Z,3.90
2018-07-10T05:40:36.439Z,6.20
2018-07-10T05:41:36.433Z,4.50
2018-07-10T05:43:29.366Z,3.10
2018-07-10T05:44:29.379Z,4.60
2018-07-10T05:46:22.412Z,4.90
2018-07-10T05:47:22.326Z,4.10
2018-07-10T05:49:15.267Z,5.10
2018-07-10T05:50:15.291Z,3.10
2018-07-10T05:52:08.281Z,4.90
2018-07-10T05:53:08.235Z,3.60
2018-07-10T05:55:01.164Z,5.00
2018-07-10T05:56:01.180Z,5.00
2018-07-10T05:57:54.132Z,6.10
2018-07-10T05:58:54.131Z,3.90
2018-07-10T06:00:47.577Z,6.60
2018-07-10T06:01:47.574Z,5.70
2018-07-10T06:03:40.513Z,4.70
2018-07-10T06:04:40.556Z,4.30
2018-07-10T06:06:33.478Z,3.40
2018-07-10T06:07:33.480Z,6.50
2018-07-10T06:09:26.447Z,4.20
2018-07-10T06:10:26.580Z,3.80
2018-07-10T06:12:19.522Z,4.30
2018-07-10T06:13:19.513Z,4.40
2018-07-10T06:15:12.587Z,4.50
2018-07-10T06:16:12.619Z,4.20
2018-07-10T06:18:05.624Z,2.60
2018-07-10T06:19:05.622Z,4.90
2018-07-10T06:20:58.578Z,4.90
2018-07-10T06:21:58.572Z,4.90
2018-07-10T06:23:51.505Z,3.50
2018-07-10T06:24:51.523Z,4.50
2018-07-10T06:26:44.472Z,5.30
2018-07-10T06:27:44.467Z,3.90
2018-07-10T06:29:37.402Z,6.70
2018-07-10T06:30:37.433Z,4.70
2018-07-10T06:32:30.371Z,5.50
2018-07-10T06:33:30.367Z,5.00
2018-07-10T06:35:23.300Z,4.10
2018-07-10T06:36:23.346Z,2.40
2018-07-10T06:38:16.274Z,3.10
2018-07-10T06:39:16.273Z,5.80
2018-07-10T06:41:09.309Z,5.40
2018-07-10T06:42:09.244Z,6.80
2018-07-10T06:44:02.154Z,5.30
2018-07-10T06:45:02.194Z,5.20
2018-07-10T06:46:55.124Z,4.40
2018-07-10T06:47:55.123Z,4.70
2018-07-10T06:49:48.091Z,4.80
2018-07-10T06:50:48.080Z,4.10
2018-07-10T06:52:41.183Z,3.50
2018-07-10T06:53:41.188Z,3.60
2018-07-10T06:55:33.961Z,4.20
2018-07-10T06:56:33.984Z,5.70
2018-07-10T06:58:26.930Z,4.40
2018-07-10T06:59:26.929Z,3.70
2018-07-10T07:01:19.909Z,7.00
2018-07-10T07:02:19.903Z,4.70
2018-07-10T07:04:12.836Z,5.30
2018-07-10T07:05:12.853Z,4.90
2018-07-10T07:07:05.809Z,4.20
2018-07-10T07:08:05.801Z,6.50
2018-07-10T07:09:59.229Z,3.60
2018-07-10T07:10:59.248Z,5.50
2018-07-10T07:12:52.240Z,3.40
2018-07-10T07:13:52.237Z,5.40
2018-07-10T07:15:45.289Z,3.60
2018-07-10T07:16:45.289Z,7.70
2018-07-10T07:18:38.258Z,3.60
2018-07-10T07:19:38.247Z,4.80
2018-07-10T07:21:31.236Z,4.10
2018-07-10T07:22:31.214Z,3.80
2018-07-10T07:24:24.147Z,5.10
2018-07-10T07:25:24.175Z,4.20
2018-07-10T07:27:17.247Z,4.50
2018-07-10T07:28:17.130Z,4.10
2018-07-10T07:30:10.060Z,3.80
2018-07-10T07:31:10.080Z,10.70
2018-07-10T07:33:03.034Z,4.60
2018-07-10T07:34:03.030Z,4.10
2018-07-10T07:35:55.960Z,6.30
2018-07-10T07:36:56.075Z,7.50
2018-07-10T07:38:48.934Z,5.70
2018-07-10T07:39:48.934Z,3.80
2018-07-10T07:41:41.880Z,5.10
2018-07-10T07:42:41.879Z,7.20
2018-07-10T07:44:34.810Z,5.90
2018-07-10T07:45:34.829Z,3.90
2018-07-10T07:47:27.777Z,8.90
2018-07-10T07:48:27.780Z,7.70
2018-07-10T07:50:20.710Z,6.00
2018-07-10T07:51:20.724Z,8.00
2018-07-10T07:53:13.674Z,6.40
2018-07-10T07:54:13.671Z,6.80
2018-07-10T07:56:06.606Z,4.30
2018-07-10T07:57:06.622Z,5.30
2018-07-10T07:58:59.639Z,3.80
2018-07-10T07:59:59.635Z,3.30
2018-07-10T08:01:52.700Z,6.10
2018-07-10T08:02:52.687Z,6.40
2018-07-10T08:04:45.751Z,5.20
2018-07-10T08:05:45.771Z,6.90
2018-07-10T08:07:38.719Z,5.30
2018-07-10T08:08:38.705Z,4.80
2018-07-10T08:10:31.741Z,4.90
2018-07-10T08:11:31.763Z,7.00
2018-07-10T08:13:24.751Z,6.30
2018-07-10T08:14:24.719Z,5.60
2018-07-10T08:16:17.765Z,7.40
2018-07-10T08:17:17.778Z,5.20
2018-07-10T08:19:10.771Z,5.60
2018-07-10T08:20:10.727Z,5.20
2018-07-10T08:22:03.722Z,6.40
2018-07-10T08:23:03.744Z,6.70
2018-07-10T08:24:56.796Z,4.80
2018-07-10T08:25:56.790Z,9.20
2018-07-10T08:27:49.733Z,7.30
2018-07-10T08:28:49.747Z,4.70
2018-07-10T08:30:42.696Z,6.50
2018-07-10T08:31:42.694Z,8.90
2018-07-10T08:33:35.829Z,6.80
2018-07-10T08:34:35.654Z,4.30
2018-07-10T08:36:28.697Z,4.00
2018-07-10T08:37:28.705Z,5.70
2018-07-10T08:39:21.769Z,8.30
2018-07-10T08:40:21.781Z,9.20
2018-07-10T08:42:14.804Z,6.20
2018-07-10T08:43:14.877Z,5.60
2018-07-10T08:45:07.879Z,5.90
2018-07-10T08:46:07.873Z,6.00
2018-07-10T08:48:00.816Z,4.70
2018-07-10T08:49:00.827Z,5.60
2018-07-10T08:50:53.884Z,8.10
2018-07-10T08:51:53.887Z,7.60
2018-07-10T08:53:46.938Z,4.80
2018-07-10T08:54:46.942Z,4.50
2018-07-10T08:56:40.104Z,7.00
2018-07-10T08:57:40.085Z,4.30
2018-07-10T08:59:33.153Z,5.10
2018-07-10T09:00:33.141Z,3.90
2018-07-10T09:02:26.191Z,6.40
2018-07-10T09:03:26.213Z,6.30
2018-07-10T09:05:19.207Z,7.00
2018-07-10T09:06:19.166Z,5.20
2018-07-10T09:08:12.647Z,4.30
2018-07-10T09:09:12.609Z,4.60
2018-07-10T09:11:05.596Z,6.40
2018-07-10T09:12:05.576Z,5.10
2018-07-10T09:13:58.581Z,6.10
2018-07-10T09:14:58.528Z,11.40
2018-07-10T09:16:51.568Z,7.30
2018-07-10T09:17:51.683Z,4.60
2018-07-10T09:19:44.641Z,7.10
2018-07-10T09:20:44.638Z,6.20
2018-07-10T09:22:37.698Z,7.30
2018-07-10T09:23:37.692Z,5.50
2018-07-10T09:25:30.637Z,7.20
2018-07-10T09:26:30.651Z,4.80
2018-07-10T09:28:23.755Z,8.80
2018-07-10T09:29:23.749Z,5.30
2018-07-10T09:31:16.639Z,8.60
2018-07-10T09:32:16.657Z,6.30
2018-07-10T09:34:09.616Z,7.30
2018-07-10T09:35:09.614Z,5.80
2018-07-10T09:37:02.540Z,8.00
2018-07-10T09:38:02.558Z,10.90
2018-07-10T09:39:55.515Z,8.80
2018-07-10T09:40:55.508Z,14.30
2018-07-10T09:42:48.467Z,16.50
2018-07-10T09:43:48.486Z,25.50
2018-07-10T09:45:41.397Z,9.20
2018-07-10T09:46:41.411Z,10.70
2018-07-10T09:48:34.362Z,7.70
2018-07-10T09:49:34.367Z,5.70
2018-07-10T09:51:27.289Z,5.50
2018-07-10T09:52:27.303Z,8.40
2018-07-10T09:54:20.260Z,5.00
2018-07-10T09:55:20.259Z,4.70
2018-07-10T09:57:13.219Z,5.40
2018-07-10T09:58:13.238Z,10.60
2018-07-10T10:00:06.693Z,6.60
2018-07-10T10:01:06.688Z,8.10
2018-07-10T10:02:59.642Z,3.40
2018-07-10T10:03:59.640Z,5.30
2018-07-10T10:05:52.566Z,8.40
2018-07-10T10:06:52.582Z,8.70
2018-07-10T10:08:45.534Z,4.40
2018-07-10T10:09:45.538Z,6.20
2018-07-10T10:11:38.476Z,6.60
2018-07-10T10:12:38.488Z,5.80
2018-07-10T10:14:31.451Z,4.40
2018-07-10T10:15:31.448Z,5.40
2018-07-10T10:17:24.397Z,6.20
2018-07-10T10:18:24.423Z,3.80
2018-07-10T10:20:17.347Z,7.30
2018-07-10T10:21:18.784Z,6.00
2018-07-10T10:23:10.300Z,4.30
2018-07-10T10:24:10.295Z,4.60
2018-07-10T10:26:03.226Z,6.20
2018-07-10T10:27:03.270Z,5.50
2018-07-10T10:28:56.266Z,6.40
2018-07-10T10:29:56.309Z,7.90
2018-07-10T10:31:49.133Z,5.60
2018-07-10T10:32:49.166Z,3.80
2018-07-10T10:34:42.089Z,4.20
2018-07-10T10:35:42.088Z,5.70
2018-07-10T10:37:35.016Z,7.30
2018-07-10T10:38:35.030Z,6.70
2018-07-10T10:40:28.122Z,8.10
2018-07-10T10:41:28.042Z,7.20
2018-07-10T10:43:20.927Z,6.90
2018-07-10T10:44:20.922Z,7.10
2018-07-10T10:46:13.857Z,6.60
2018-07-10T10:47:13.871Z,7.30
2018-07-10T10:49:06.821Z,5.90
2018-07-10T10:50:06.814Z,5.60
2018-07-10T10:51:59.762Z,7.40
2018-07-10T10:52:59.775Z,4.50
2018-07-10T10:54:52.816Z,5.50
2018-07-10T10:55:52.721Z,4.50
2018-07-10T10:57:45.650Z,9.80
2018-07-10T10:58:45.737Z,7.50
2018-07-10T11:00:38.624Z,5.20
2018-07-10T11:01:38.614Z,6.60
2018-07-10T11:03:31.565Z,5.80
2018-07-10T11:04:31.560Z,6.10
2018-07-10T11:06:24.501Z,5.40
2018-07-10T11:07:24.515Z,6.00
2018-07-10T11:09:17.465Z,5.10
2018-07-10T11:10:17.467Z,7.30
2018-07-10T11:12:10.421Z,8.50
2018-07-10T11:13:10.438Z,7.40
2018-07-10T11:15:03.385Z,7.30
2018-07-10T11:16:03.384Z,5.40
2018-07-10T11:17:56.317Z,6.70
2018-07-10T11:18:56.333Z,4.00
2018-07-10T11:20:49.286Z,5.80
2018-07-10T11:21:49.282Z,5.70
2018-07-10T11:23:42.244Z,6.10
2018-07-10T11:24:42.235Z,6.40
2018-07-10T11:26:35.185Z,8.60
2018-07-10T11:27:35.187Z,8.90
2018-07-10T11:29:28.139Z,8.10
2018-07-10T11:30:28.149Z,7.60
2018-07-10T11:32:21.065Z,6.80
2018-07-10T11:33:21.080Z,6.10
2018-07-10T11:35:14.034Z,6.30
2018-07-10T11:36:14.031Z,6.80
2018-07-10T11:38:06.992Z,9.90
2018-07-10T11:39:08.041Z,7.30
2018-07-10T11:40:59.967Z,7.10
2018-07-10T11:41:59.963Z,6.10
2018-07-10T11:43:52.909Z,6.50
2018-07-10T11:44:52.907Z,7.10
2018-07-10T11:46:45.834Z,8.00
2018-07-10T11:47:45.850Z,4.80
2018-07-10T11:49:38.806Z,7.10
2018-07-10T11:50:38.804Z,5.50
2018-07-10T11:52:31.734Z,7.30
2018-07-10T11:53:31.749Z,8.30
2018-07-10T11:55:24.716Z,6.10
2018-07-10T11:56:24.695Z,7.10
2018-07-10T11:58:17.638Z,7.90
2018-07-10T11:59:17.642Z,8.50
2018-07-10T12:01:10.622Z,7.20
2018-07-10T12:02:10.597Z,7.00
2018-07-10T12:04:03.555Z,10.10
2018-07-10T12:05:03.618Z,8.60
2018-07-10T12:06:56.468Z,8.90
2018-07-10T12:07:56.486Z,6.90
2018-07-10T12:09:49.464Z,9.50
2018-07-10T12:10:49.486Z,6.70
2018-07-10T12:12:42.393Z,5.70
2018-07-10T12:13:42.401Z,8.60
2018-07-10T12:15:35.358Z,8.80
2018-07-10T12:16:35.355Z,7.80
2018-07-10T12:18:28.284Z,6.90
2018-07-10T12:19:28.301Z,7.10
2018-07-10T12:21:21.270Z,7.10
2018-07-10T12:22:21.251Z,6.50
2018-07-10T12:24:14.205Z,8.10
2018-07-10T12:25:14.200Z,8.30
2018-07-10T12:27:07.124Z,5.00
2018-07-10T12:28:07.140Z,8.50
2018-07-10T12:30:00.100Z,5.40
2018-07-10T12:31:00.086Z,6.10
2018-07-10T12:32:53.019Z,6.50
2018-07-10T12:33:53.036Z,7.10
2018-07-10T12:35:45.984Z,6.60
2018-07-10T12:36:45.977Z,9.80
2018-07-10T12:38:38.914Z,7.50
2018-07-10T12:39:38.929Z,8.60
2018-07-10T12:41:31.910Z,5.90
2018-07-10T12:42:31.874Z,6.50
2018-07-10T12:44:24.827Z,9.40
2018-07-10T12:45:24.823Z,5.40
2018-07-10T12:47:17.766Z,7.80
2018-07-10T12:48:17.781Z,6.10
2018-07-10T12:50:10.737Z,8.20
2018-07-10T12:51:10.734Z,5.90
2018-07-10T12:53:03.702Z,7.70
2018-07-10T12:54:03.675Z,6.70
2018-07-10T12:55:56.628Z,7.40
2018-07-10T12:56:56.624Z,8.50
2018-07-10T12:58:49.558Z,7.80
2018-07-10T12:59:49.569Z,6.90
2018-07-10T13:01:42.518Z,9.00
2018-07-10T13:02:42.515Z,8.60
2018-07-10T13:04:35.466Z,8.00
2018-07-10T13:05:35.465Z,7.60
2018-07-10T13:07:28.393Z,10.90
2018-07-10T13:08:28.409Z,9.80
2018-07-10T13:10:21.359Z,6.60
2018-07-10T13:11:21.357Z,9.70
2018-07-10T13:13:14.286Z,10.10
2018-07-10T13:14:14.304Z,9.60
2018-07-10T13:16:07.255Z,8.40
2018-07-10T13:17:07.250Z,10.30
2018-07-10T13:19:00.184Z,8.80
2018-07-10T13:20:00.205Z,8.60
2018-07-10T13:21:53.153Z,9.50
2018-07-10T13:22:53.147Z,13.20
2018-07-10T13:24:46.097Z,11.80
2018-07-10T13:25:46.094Z,7.90
2018-07-10T13:27:39.024Z,9.30
2018-07-10T13:28:39.039Z,9.20
2018-07-10T13:30:31.998Z,9.10
2018-07-10T13:31:31.995Z,13.00
2018-07-10T13:33:24.955Z,17.30
2018-07-10T13:34:24.944Z,10.10
2018-07-10T13:36:17.893Z,9.10
2018-07-10T13:37:17.895Z,9.30
2018-07-10T13:39:10.828Z,11.60
2018-07-10T13:40:10.842Z,10.50
2018-07-10T13:42:03.795Z,9.50
2018-07-10T13:43:03.791Z,11.70
2018-07-10T13:44:56.745Z,12.20
2018-07-10T13:45:56.744Z,8.90
2018-07-10T13:47:49.682Z,11.00
2018-07-10T13:48:49.699Z,8.90
2018-07-10T13:50:42.655Z,9.80
2018-07-10T13:51:42.642Z,9.70
2018-07-10T13:53:35.573Z,11.90
2018-07-10T13:54:35.588Z,11.00
2018-07-10T13:56:28.541Z,11.80
2018-07-10T13:57:28.535Z,12.70
2018-07-10T13:59:21.473Z,12.00
2018-07-10T14:00:21.487Z,13.00
2018-07-10T14:02:14.442Z,10.60
2018-07-10T14:03:14.434Z,12.20
2018-07-10T14:05:07.391Z,10.30
2018-07-10T14:06:07.386Z,12.70
2018-07-10T14:08:00.316Z,12.50
2018-07-10T14:09:00.332Z,10.70
2018-07-10T14:10:53.284Z,11.30
2018-07-10T14:11:53.283Z,12.00
2018-07-10T14:13:46.226Z,14.10
2018-07-10T14:14:46.240Z,12.80
2018-07-10T14:16:39.192Z,13.30
2018-07-10T14:17:39.198Z,13.90
2018-07-10T14:19:32.124Z,16.60
2018-07-10T14:20:32.141Z,14.70
2018-07-10T14:22:25.180Z,11.00
2018-07-10T14:23:25.094Z,17.90
2018-07-10T14:25:18.045Z,11.40
2018-07-10T14:26:18.039Z,12.90
2018-07-10T14:28:11.017Z,15.10
2018-07-10T14:29:10.987Z,13.50
2018-07-10T14:31:03.943Z,11.40
2018-07-10T14:32:03.933Z,15.10
2018-07-10T14:33:56.866Z,11.30
2018-07-10T14:34:56.967Z,13.10
2018-07-10T14:36:49.835Z,11.80
2018-07-10T14:37:49.830Z,12.90
2018-07-10T14:39:42.759Z,12.70
2018-07-10T14:40:42.774Z,11.30
2018-07-10T14:42:35.733Z,14.30
2018-07-10T14:43:35.723Z,15.30
2018-07-10T14:45:28.683Z,14.10
2018-07-10T14:46:28.680Z,12.50
2018-07-10T14:48:21.609Z,17.10
2018-07-10T14:49:21.624Z,12.10
2018-07-10T14:51:14.579Z,13.20
2018-07-10T14:52:14.573Z,13.90
2018-07-10T14:54:07.510Z,15.00
2018-07-10T14:55:07.519Z,12.40
2018-07-10T14:57:00.479Z,14.30
2018-07-10T14:58:00.530Z,16.00
2018-07-10T14:59:53.403Z,14.80
2018-07-10T15:00:53.421Z,14.00
2018-07-10T15:02:46.372Z,12.80
2018-07-10T15:03:46.370Z,12.00
2018-07-10T15:05:39.327Z,10.50
2018-07-10T15:06:39.316Z,10.20
2018-07-10T15:08:32.258Z,11.80
2018-07-10T15:09:32.272Z,11.90
2018-07-10T15:11:25.225Z,12.10
2018-07-10T15:12:25.223Z,10.80
2018-07-10T15:14:18.161Z,12.70
2018-07-10T15:15:18.244Z,13.00
2018-07-10T15:17:11.129Z,12.50
2018-07-10T15:18:11.142Z,11.70
2018-07-10T15:20:04.060Z,13.20
2018-07-10T15:21:04.078Z,12.40
2018-07-10T15:22:57.024Z,11.90
2018-07-10T15:23:57.028Z,13.30
2018-07-10T15:25:49.979Z,12.70
2018-07-10T15:26:49.974Z,12.80
2018-07-10T15:28:42.905Z,13.30
2018-07-10T15:29:42.919Z,13.90
2018-07-10T15:31:35.869Z,13.60
2018-07-10T15:32:35.876Z,12.50
2018-07-10T15:34:28.798Z,14.20
2018-07-10T15:35:28.815Z,14.80
2018-07-10T15:37:21.768Z,12.40
2018-07-10T15:38:21.764Z,14.80
2018-07-10T15:40:14.709Z,14.00
2018-07-10T15:41:14.715Z,14.40
2018-07-10T15:43:07.666Z,13.50
2018-07-10T15:44:07.664Z,14.60
2018-07-10T15:46:00.617Z,14.50
2018-07-10T15:47:00.616Z,14.90
2018-07-10T15:48:53.554Z,16.60
2018-07-10T15:49:53.570Z,15.10
2018-07-10T15:51:46.522Z,17.00
2018-07-10T15:52:46.521Z,13.70
2018-07-10T15:54:39.450Z,15.10
2018-07-10T15:55:39.468Z,14.70
2018-07-10T15:57:32.419Z,13.80
2018-07-10T15:58:32.415Z,15.50
2018-07-10T16:00:25.346Z,14.70
2018-07-10T16:01:25.362Z,16.70
2018-07-10T16:03:18.317Z,14.40
2018-07-10T16:04:18.310Z,15.10
2018-07-10T16:06:11.301Z,16.60
2018-07-10T16:07:11.271Z,17.70
2018-07-10T16:09:04.195Z,16.30
2018-07-10T16:10:04.210Z,14.50
2018-07-10T16:11:57.171Z,14.50
2018-07-10T16:12:57.165Z,15.00
2018-07-10T16:14:50.098Z,17.00
2018-07-10T16:15:50.114Z,15.90
2018-07-10T16:17:43.065Z,15.90
2018-07-10T16:18:43.063Z,12.60
2018-07-10T16:20:36.002Z,15.30
2018-07-10T16:21:36.018Z,16.20
2018-07-10T16:23:28.975Z,14.80
2018-07-10T16:24:28.971Z,15.80
2018-07-10T16:26:21.931Z,15.80
2018-07-10T16:27:21.923Z,15.80
2018-07-10T16:29:14.857Z,15.60
2018-07-10T16:30:14.871Z,15.50
2018-07-10T16:32:07.826Z,15.90
2018-07-10T16:33:07.824Z,13.40
2018-07-10T16:35:00.762Z,17.40
2018-07-10T16:36:00.781Z,16.80
2018-07-10T16:37:53.734Z,16.10
2018-07-10T16:38:53.730Z,15.80
2018-07-10T16:40:46.665Z,17.90
2018-07-10T16:41:46.681Z,15.40
2018-07-10T16:43:39.639Z,16.70
2018-07-10T16:44:39.691Z,18.50
2018-07-10T16:46:32.592Z,16.40
2018-07-10T16:47:32.592Z,17.70
2018-07-10T16:49:25.528Z,17.00
2018-07-10T16:50:25.605Z,20.20
2018-07-10T16:52:18.501Z,17.40
2018-07-10T16:53:18.493Z,17.30
2018-07-10T16:55:11.424Z,19.10
2018-07-10T16:56:11.449Z,17.40
2018-07-10T16:58:04.396Z,15.10
2018-07-10T16:59:04.395Z,15.00
2018-07-10T17:00:57.333Z,15.60
2018-07-10T17:01:57.351Z,20.40
2018-07-10T17:03:50.302Z,15.00
2018-07-10T17:04:50.300Z,16.20
2018-07-10T17:06:43.254Z,14.20
2018-07-10T17:07:43.251Z,17.70
2018-07-10T17:09:36.724Z,17.40
2018-07-10T17:10:36.697Z,15.60
2018-07-10T17:12:29.651Z,16.70
2018-07-10T17:13:29.647Z,17.90
2018-07-10T17:15:22.579Z,19.60
2018-07-10T17:16:22.596Z,12.50
2018-07-10T17:18:15.551Z,15.80
2018-07-10T17:19:15.547Z,15.80
2018-07-10T17:21:08.484Z,17.00
2018-07-10T17:22:08.499Z,16.90
2018-07-10T17:24:01.453Z,15.90
2018-07-10T17:25:01.447Z,19.50
2018-07-10T17:26:54.402Z,14.50
2018-07-10T17:27:54.398Z,15.30
2018-07-10T17:29:47.336Z,14.00
2018-07-10T17:30:47.354Z,12.90
2018-07-10T17:32:40.301Z,17.60
2018-07-10T17:33:40.297Z,14.70
2018-07-10T17:35:33.229Z,15.60
2018-07-10T17:36:33.250Z,14.70
2018-07-10T17:38:26.197Z,16.60
2018-07-10T17:39:26.195Z,16.30
2018-07-10T17:41:19.133Z,10.30
2018-07-10T17:42:19.152Z,10.70
2018-07-10T17:44:12.100Z,7.90
2018-07-10T17:45:12.109Z,8.90
2018-07-10T17:47:05.050Z,9.20
2018-07-10T17:48:05.048Z,9.20
2018-07-10T17:49:57.977Z,9.40
2018-07-10T17:50:58.021Z,9.60
2018-07-10T17:52:50.947Z,9.00
2018-07-10T17:53:50.943Z,9.40
2018-07-10T17:55:43.874Z,9.40
2018-07-10T17:56:43.887Z,11.60
2018-07-10T17:58:36.840Z,7.00
2018-07-10T17:59:36.841Z,11.30
2018-07-10T18:01:29.874Z,7.40
2018-07-10T18:02:29.791Z,10.70
2018-07-10T18:04:22.742Z,10.30
2018-07-10T18:05:22.739Z,10.10
2018-07-10T18:07:15.707Z,9.60
2018-07-10T18:08:15.688Z,8.20
2018-07-10T18:10:08.616Z,10.20
2018-07-10T18:11:08.633Z,8.60
2018-07-10T18:13:01.588Z,7.50
2018-07-10T18:14:01.587Z,10.70
2018-07-10T18:15:54.518Z,10.10
2018-07-10T18:16:54.534Z,8.70
2018-07-10T18:18:47.482Z,12.00
2018-07-10T18:19:47.476Z,8.10
2018-07-10T18:21:40.416Z,11.80
2018-07-10T18:22:40.498Z,7.80
2018-07-10T18:24:33.380Z,6.40
2018-07-10T18:25:33.382Z,7.00
2018-07-10T18:27:26.331Z,9.20
2018-07-10T18:28:26.323Z,7.10
2018-07-10T18:30:19.307Z,6.80
2018-07-10T18:31:19.267Z,7.20
2018-07-10T18:33:12.215Z,6.70
2018-07-10T18:34:12.210Z,8.00
2018-07-10T18:36:05.142Z,7.00
2018-07-10T18:37:05.153Z,6.30
2018-07-10T18:38:58.104Z,5.10
2018-07-10T18:39:58.102Z,5.90
2018-07-10T18:41:51.031Z,6.50
2018-07-10T18:42:51.046Z,7.20
2018-07-10T18:44:44.007Z,5.90
2018-07-10T18:45:43.994Z,8.30
2018-07-10T18:47:36.945Z,5.30
2018-07-10T18:48:36.977Z,5.60
2018-07-10T18:50:29.866Z,6.40
2018-07-10T18:51:29.883Z,4.90
2018-07-10T18:53:22.832Z,8.50
2018-07-10T18:54:22.911Z,9.70
2018-07-10T18:56:15.759Z,5.40
2018-07-10T18:57:15.774Z,6.30
2018-07-10T18:59:08.730Z,4.70
2018-07-10T19:00:08.717Z,5.40
2018-07-10T19:02:01.648Z,5.30
2018-07-10T19:03:01.664Z,6.80
2018-07-10T19:04:54.617Z,4.70
2018-07-10T19:05:54.612Z,7.10
2018-07-10T19:07:47.563Z,6.20
2018-07-10T19:08:47.558Z,4.50
2018-07-10T19:10:40.513Z,6.50
2018-07-10T19:11:40.514Z,4.20
2018-07-10T19:13:33.450Z,4.90
2018-07-10T19:14:33.444Z,5.10
2018-07-10T19:16:26.369Z,4.60
2018-07-10T19:17:26.387Z,6.60
2018-07-10T19:19:19.336Z,4.30
2018-07-10T19:20:19.333Z,4.50
2018-07-10T19:22:12.260Z,6.20
2018-07-10T19:23:12.276Z,5.60
2018-07-10T19:25:05.230Z,6.70
2018-07-10T19:26:05.221Z,7.00
2018-07-10T19:27:58.170Z,9.00
2018-07-10T19:28:58.166Z,7.20
2018-07-10T19:30:51.097Z,5.50